Waterford, California
Current Conditions -  °F | °C
As of 9:45 AM on Wednesday 26 Nov 2014 (Local Time) from KMER Reporting Station
Haze Haze  
Wind Chill: 54°   Ceiling: Unl
Heat Index: 54°   Visibility: 4mi
Dew Point: 54°   Wind: 0mph
Humidity: 100%   Direction: NA
Pressure: 30.35"   Gusts: NA
Location:  37.64°N, 120.76°W
Report Text: KMER 261745Z 00000KT 4SM HZ SKC 12/12 A3035
Loading
Personal Weather Stations






























Interactive Weather Map New forecast layout! Learn more

10-Day Weather Forecast

Advertisements
Track Severe Weather on mobile